Cedarfalls, Iowa
Current Conditions -  °F | °C
As of 8:54 PM on Saturday 24 Jan 2015 (Local Time) from KALO Reporting Station
Few Clouds Few Clouds  
Wind Chill: 32°   Ceiling: Unl
Heat Index: 32°   Visibility: 10mi
Dew Point: 30°   Wind: 0mph
Humidity: 92%   Direction: NA
Pressure: 29.58"   Gusts: NA
Location:  42.5035°N, 92.4936°W
Report Text: KALO 250254Z AUTO 00000KT 10SM FEW120 00/M01 A2958 RMK AO2 SLP027 T00001011 58014
Loading
Personal Weather Stations






























Interactive Weather Map New forecast layout! Learn more

10-Day Weather Forecast

Advertisements
Track Severe Weather on mobile